sensor_id;sensor_type;location;lat;lon;timestamp;temperature;humidity
24176;DHT22;12324;48.146;11.502;2022-07-12T00:01:57;16.20;99.90
24176;DHT22;12324;48.146;11.502;2022-07-12T00:04:24;16.20;99.90
24176;DHT22;12324;48.146;11.502;2022-07-12T00:06:51;16.10;99.90
24176;DHT22;12324;48.146;11.502;2022-07-12T00:09:18;16.00;99.90
24176;DHT22;12324;48.146;11.502;2022-07-12T00:11:45;15.90;99.90
24176;DHT22;12324;48.146;11.502;2022-07-12T00:14:12;15.80;99.90
24176;DHT22;12324;48.146;11.502;2022-07-12T00:16:39;15.80;99.90
24176;DHT22;12324;48.146;11.502;2022-07-12T00:19:06;15.80;99.90
24176;DHT22;12324;48.146;11.502;2022-07-12T00:21:32;15.70;99.90
24176;DHT22;12324;48.146;11.502;2022-07-12T00:24:00;15.70;99.90
24176;DHT22;12324;48.146;11.502;2022-07-12T00:26:27;15.70;99.90
24176;DHT22;12324;48.146;11.502;2022-07-12T00:28:54;15.60;99.90
24176;DHT22;12324;48.146;11.502;2022-07-12T00:31:20;15.60;99.90
24176;DHT22;12324;48.146;11.502;2022-07-12T00:33:47;15.50;99.90
24176;DHT22;12324;48.146;11.502;2022-07-12T00:36:14;15.50;99.90
24176;DHT22;12324;48.146;11.502;2022-07-12T00:38:41;15.40;99.90
24176;DHT22;12324;48.146;11.502;2022-07-12T00:41:08;15.40;99.90
24176;DHT22;12324;48.146;11.502;2022-07-12T00:43:35;15.40;99.90
24176;DHT22;12324;48.146;11.502;2022-07-12T00:46:02;15.40;99.90
24176;DHT22;12324;48.146;11.502;2022-07-12T00:48:30;15.40;99.90
24176;DHT22;12324;48.146;11.502;2022-07-12T00:50:58;15.40;99.90
24176;DHT22;12324;48.146;11.502;2022-07-12T00:53:25;15.40;99.90
24176;DHT22;12324;48.146;11.502;2022-07-12T00:55:56;15.40;99.90
24176;DHT22;12324;48.146;11.502;2022-07-12T00:58:24;15.40;99.90
24176;DHT22;12324;48.146;11.502;2022-07-12T01:00:51;15.30;99.90
24176;DHT22;12324;48.146;11.502;2022-07-12T01:03:19;15.30;99.90
24176;DHT22;12324;48.146;11.502;2022-07-12T01:05:46;15.30;99.90
24176;DHT22;12324;48.146;11.502;2022-07-12T01:08:15;15.30;99.90
24176;DHT22;12324;48.146;11.502;2022-07-12T01:10:43;15.20;99.90
24176;DHT22;12324;48.146;11.502;2022-07-12T01:13:10;15.20;99.90
24176;DHT22;12324;48.146;11.502;2022-07-12T01:15:37;15.20;99.90
24176;DHT22;12324;48.146;11.502;2022-07-12T01:18:04;15.20;99.90
24176;DHT22;12324;48.146;11.502;2022-07-12T01:20:32;15.10;99.90
24176;DHT22;12324;48.146;11.502;2022-07-12T01:22:59;15.10;99.90
24176;DHT22;12324;48.146;11.502;2022-07-12T01:25:26;14.90;99.90
24176;DHT22;12324;48.146;11.502;2022-07-12T01:27:53;14.90;99.90
24176;DHT22;12324;48.146;11.502;2022-07-12T01:30:20;14.90;99.90
24176;DHT22;12324;48.146;11.502;2022-07-12T01:32:47;14.80;99.90
24176;DHT22;12324;48.146;11.502;2022-07-12T01:35:15;14.80;99.90
24176;DHT22;12324;48.146;11.502;2022-07-12T01:37:42;14.70;99.90
24176;DHT22;12324;48.146;11.502;2022-07-12T01:40:11;14.60;99.90
24176;DHT22;12324;48.146;11.502;2022-07-12T01:42:39;14.70;99.90
24176;DHT22;12324;48.146;11.502;2022-07-12T01:45:07;14.60;99.90
24176;DHT22;12324;48.146;11.502;2022-07-12T01:47:35;14.50;99.90
24176;DHT22;12324;48.146;11.502;2022-07-12T01:50:05;14.50;99.90
24176;DHT22;12324;48.146;11.502;2022-07-12T01:52:32;14.40;99.90
24176;DHT22;12324;48.146;11.502;2022-07-12T01:54:59;14.40;99.90
24176;DHT22;12324;48.146;11.502;2022-07-12T01:57:27;14.30;99.90
24176;DHT22;12324;48.146;11.502;2022-07-12T01:59:55;14.30;99.90
24176;DHT22;12324;48.146;11.502;2022-07-12T02:02:25;14.30;99.90
24176;DHT22;12324;48.146;11.502;2022-07-12T02:04:53;14.20;99.90
24176;DHT22;12324;48.146;11.502;2022-07-12T02:07:23;14.20;99.90
24176;DHT22;12324;48.146;11.502;2022-07-12T02:09:50;14.20;99.90
24176;DHT22;12324;48.146;11.502;2022-07-12T02:12:17;14.20;99.90
24176;DHT22;12324;48.146;11.502;2022-07-12T02:14:44;14.20;99.90
24176;DHT22;12324;48.146;11.502;2022-07-12T02:17:11;14.20;99.90
24176;DHT22;12324;48.146;11.502;2022-07-12T02:19:37;14.20;99.90
24176;DHT22;12324;48.146;11.502;2022-07-12T02:22:04;14.20;99.90
24176;DHT22;12324;48.146;11.502;2022-07-12T02:24:31;14.10;99.90
24176;DHT22;12324;48.146;11.502;2022-07-12T02:26:57;14.10;99.90
24176;DHT22;12324;48.146;11.502;2022-07-12T02:29:24;14.10;99.90
24176;DHT22;12324;48.146;11.502;2022-07-12T02:31:51;14.10;99.90
24176;DHT22;12324;48.146;11.502;2022-07-12T02:34:17;14.00;99.90
24176;DHT22;12324;48.146;11.502;2022-07-12T02:36:44;14.00;99.90
24176;DHT22;12324;48.146;11.502;2022-07-12T02:39:11;13.90;99.90
24176;DHT22;12324;48.146;11.502;2022-07-12T02:41:38;13.90;99.90
24176;DHT22;12324;48.146;11.502;2022-07-12T02:44:04;13.90;99.90
24176;DHT22;12324;48.146;11.502;2022-07-12T02:46:31;13.80;99.90
24176;DHT22;12324;48.146;11.502;2022-07-12T02:48:58;13.80;99.90
24176;DHT22;12324;48.146;11.502;2022-07-12T02:51:25;13.80;99.90
24176;DHT22;12324;48.146;11.502;2022-07-12T02:53:52;13.80;99.90
24176;DHT22;12324;48.146;11.502;2022-07-12T02:56:18;13.70;99.90
24176;DHT22;12324;48.146;11.502;2022-07-12T02:58:45;13.70;99.90
24176;DHT22;12324;48.146;11.502;2022-07-12T03:01:12;13.70;99.90
24176;DHT22;12324;48.146;11.502;2022-07-12T03:03:39;13.70;99.90
24176;DHT22;12324;48.146;11.502;2022-07-12T03:06:06;13.70;99.90
24176;DHT22;12324;48.146;11.502;2022-07-12T03:08:33;13.60;99.90
24176;DHT22;12324;48.146;11.502;2022-07-12T03:11:00;13.70;99.90
24176;DHT22;12324;48.146;11.502;2022-07-12T03:13:27;13.60;99.90
24176;DHT22;12324;48.146;11.502;2022-07-12T03:15:53;13.60;99.90
24176;DHT22;12324;48.146;11.502;2022-07-12T03:18:20;13.50;99.90
24176;DHT22;12324;48.146;11.502;2022-07-12T03:20:47;13.50;99.90
24176;DHT22;12324;48.146;11.502;2022-07-12T03:23:15;13.50;99.90
24176;DHT22;12324;48.146;11.502;2022-07-12T03:25:42;13.50;99.90
24176;DHT22;12324;48.146;11.502;2022-07-12T03:28:09;13.40;99.90
24176;DHT22;12324;48.146;11.502;2022-07-12T03:30:36;13.50;99.90
24176;DHT22;12324;48.146;11.502;2022-07-12T03:33:03;13.50;99.90
24176;DHT22;12324;48.146;11.502;2022-07-12T03:35:29;13.50;99.90
24176;DHT22;12324;48.146;11.502;2022-07-12T03:37:56;13.60;99.90
24176;DHT22;12324;48.146;11.502;2022-07-12T03:40:22;13.60;99.90
24176;DHT22;12324;48.146;11.502;2022-07-12T03:42:51;13.60;99.90
24176;DHT22;12324;48.146;11.502;2022-07-12T03:45:18;13.60;99.90
24176;DHT22;12324;48.146;11.502;2022-07-12T03:47:45;13.50;99.90
24176;DHT22;12324;48.146;11.502;2022-07-12T03:50:13;13.50;99.90
24176;DHT22;12324;48.146;11.502;2022-07-12T03:52:41;13.40;99.90
24176;DHT22;12324;48.146;11.502;2022-07-12T03:55:09;13.50;99.90
24176;DHT22;12324;48.146;11.502;2022-07-12T03:57:36;13.70;99.90
24176;DHT22;12324;48.146;11.502;2022-07-12T04:00:08;13.90;99.90
24176;DHT22;12324;48.146;11.502;2022-07-12T04:02:41;14.10;99.90
24176;DHT22;12324;48.146;11.502;2022-07-12T04:05:09;14.10;99.90
24176;DHT22;12324;48.146;11.502;2022-07-12T04:07:37;14.20;99.90
24176;DHT22;12324;48.146;11.502;2022-07-12T04:10:05;14.10;99.90
24176;DHT22;12324;48.146;11.502;2022-07-12T04:12:32;14.10;99.90
24176;DHT22;12324;48.146;11.502;2022-07-12T04:14:59;14.10;99.90
24176;DHT22;12324;48.146;11.502;2022-07-12T04:17:26;14.20;99.90
24176;DHT22;12324;48.146;11.502;2022-07-12T04:19:52;14.30;99.90
24176;DHT22;12324;48.146;11.502;2022-07-12T04:22:19;14.30;99.90
24176;DHT22;12324;48.146;11.502;2022-07-12T04:24:46;14.20;99.90
24176;DHT22;12324;48.146;11.502;2022-07-12T04:27:13;14.10;99.90
24176;DHT22;12324;48.146;11.502;2022-07-12T04:29:39;14.10;99.90
24176;DHT22;12324;48.146;11.502;2022-07-12T04:32:06;14.00;99.90
24176;DHT22;12324;48.146;11.502;2022-07-12T04:34:33;14.00;99.90
24176;DHT22;12324;48.146;11.502;2022-07-12T04:37:00;14.00;99.90
24176;DHT22;12324;48.146;11.502;2022-07-12T04:39:27;14.00;99.90
24176;DHT22;12324;48.146;11.502;2022-07-12T04:41:53;14.10;99.90
24176;DHT22;12324;48.146;11.502;2022-07-12T04:44:20;14.20;99.90
24176;DHT22;12324;48.146;11.502;2022-07-12T04:46:47;14.20;99.90
24176;DHT22;12324;48.146;11.502;2022-07-12T04:49:13;14.20;99.90
24176;DHT22;12324;48.146;11.502;2022-07-12T04:51:40;14.20;99.90
24176;DHT22;12324;48.146;11.502;2022-07-12T04:54:07;14.40;99.90
24176;DHT22;12324;48.146;11.502;2022-07-12T04:56:34;14.40;99.90
24176;DHT22;12324;48.146;11.502;2022-07-12T04:59:01;14.40;99.90
24176;DHT22;12324;48.146;11.502;2022-07-12T05:01:29;14.60;99.90
24176;DHT22;12324;48.146;11.502;2022-07-12T05:03:56;14.70;99.90
24176;DHT22;12324;48.146;11.502;2022-07-12T05:06:23;14.70;99.90
24176;DHT22;12324;48.146;11.502;2022-07-12T05:08:50;14.80;99.90
24176;DHT22;12324;48.146;11.502;2022-07-12T05:11:17;14.90;99.90
24176;DHT22;12324;48.146;11.502;2022-07-12T05:13:44;14.90;99.90
24176;DHT22;12324;48.146;11.502;2022-07-12T05:16:11;14.90;99.90
24176;DHT22;12324;48.146;11.502;2022-07-12T05:18:37;15.00;99.90
24176;DHT22;12324;48.146;11.502;2022-07-12T05:21:04;15.10;99.90
24176;DHT22;12324;48.146;11.502;2022-07-12T05:23:31;15.40;99.90
24176;DHT22;12324;48.146;11.502;2022-07-12T05:25:58;15.40;99.90
24176;DHT22;12324;48.146;11.502;2022-07-12T05:28:24;15.50;99.90
24176;DHT22;12324;48.146;11.502;2022-07-12T05:30:51;15.60;99.90
24176;DHT22;12324;48.146;11.502;2022-07-12T05:33:18;15.70;99.90
24176;DHT22;12324;48.146;11.502;2022-07-12T05:35:45;15.70;99.90
24176;DHT22;12324;48.146;11.502;2022-07-12T05:38:11;15.80;99.90
24176;DHT22;12324;48.146;11.502;2022-07-12T05:40:38;15.80;99.90
24176;DHT22;12324;48.146;11.502;2022-07-12T05:43:05;15.90;99.90
24176;DHT22;12324;48.146;11.502;2022-07-12T05:45:31;16.00;99.90
24176;DHT22;12324;48.146;11.502;2022-07-12T05:47:58;16.00;99.90
24176;DHT22;12324;48.146;11.502;2022-07-12T13:53:00;16.10;99.90
24176;DHT22;12324;48.146;11.502;2022-07-12T13:55:27;26.20;83.40
24176;DHT22;12324;48.146;11.502;2022-07-12T13:57:54;25.50;86.00
24176;DHT22;12324;48.146;11.502;2022-07-12T14:00:21;25.70;88.80
24176;DHT22;12324;48.146;11.502;2022-07-12T14:02:49;25.90;86.40
24176;DHT22;12324;48.146;11.502;2022-07-12T14:05:21;26.30;79.40
24176;DHT22;12324;48.146;11.502;2022-07-12T14:10:15;26.60;77.50
24176;DHT22;12324;48.146;11.502;2022-07-12T14:12:42;26.60;76.50
24176;DHT22;12324;48.146;11.502;2022-07-12T14:15:10;26.70;78.80
24176;DHT22;12324;48.146;11.502;2022-07-12T14:18:04;27.00;73.10
24176;DHT22;12324;48.146;11.502;2022-07-12T14:20:33;26.90;69.90
24176;DHT22;12324;48.146;11.502;2022-07-12T14:23:00;26.70;73.00
24176;DHT22;12324;48.146;11.502;2022-07-12T14:25:27;26.90;76.30
24176;DHT22;12324;48.146;11.502;2022-07-12T14:27:54;27.20;72.90
24176;DHT22;12324;48.146;11.502;2022-07-12T14:30:21;27.60;69.50
24176;DHT22;12324;48.146;11.502;2022-07-12T14:32:48;27.20;67.20
24176;DHT22;12324;48.146;11.502;2022-07-12T14:35:19;27.10;65.90
24176;DHT22;12324;48.146;11.502;2022-07-12T14:37:46;27.50;67.80
24176;DHT22;12324;48.146;11.502;2022-07-12T14:40:12;27.50;67.00
24176;DHT22;12324;48.146;11.502;2022-07-12T14:42:39;27.70;63.70
24176;DHT22;12324;48.146;11.502;2022-07-12T14:45:07;27.90;63.40
24176;DHT22;12324;48.146;11.502;2022-07-12T14:47:33;28.80;61.70
24176;DHT22;12324;48.146;11.502;2022-07-12T14:50:00;29.60;57.10
24176;DHT22;12324;48.146;11.502;2022-07-12T14:52:28;30.60;59.00
24176;DHT22;12324;48.146;11.502;2022-07-12T14:54:55;31.40;53.70
24176;DHT22;12324;48.146;11.502;2022-07-12T14:57:22;32.20;49.10
24176;DHT22;12324;48.146;11.502;2022-07-12T14:59:49;32.30;47.40
24176;DHT22;12324;48.146;11.502;2022-07-12T15:02:15;31.90;47.70
24176;DHT22;12324;48.146;11.502;2022-07-12T15:04:44;32.00;47.30
24176;DHT22;12324;48.146;11.502;2022-07-12T15:07:10;30.70;48.50
24176;DHT22;12324;48.146;11.502;2022-07-12T15:09:37;29.10;51.20
24176;DHT22;12324;48.146;11.502;2022-07-12T15:12:04;28.60;51.70
24176;DHT22;12324;48.146;11.502;2022-07-12T15:14:31;28.60;52.40
24176;DHT22;12324;48.146;11.502;2022-07-12T15:17:02;28.40;52.50
24176;DHT22;12324;48.146;11.502;2022-07-12T15:19:28;28.50;51.80
24176;DHT22;12324;48.146;11.502;2022-07-12T15:21:55;28.80;52.90
24176;DHT22;12324;48.146;11.502;2022-07-12T15:24:22;28.50;51.00
24176;DHT22;12324;48.146;11.502;2022-07-12T15:26:49;28.20;51.80
24176;DHT22;12324;48.146;11.502;2022-07-12T15:29:15;28.20;53.40
24176;DHT22;12324;48.146;11.502;2022-07-12T15:31:42;28.40;53.50
24176;DHT22;12324;48.146;11.502;2022-07-12T15:34:11;28.80;51.40
24176;DHT22;12324;48.146;11.502;2022-07-12T15:36:37;28.90;52.10
24176;DHT22;12324;48.146;11.502;2022-07-12T15:39:04;29.30;52.20
24176;DHT22;12324;48.146;11.502;2022-07-12T15:41:33;29.60;53.20
24176;DHT22;12324;48.146;11.502;2022-07-12T15:44:00;29.70;50.70
24176;DHT22;12324;48.146;11.502;2022-07-12T15:46:29;29.60;50.80
24176;DHT22;12324;48.146;11.502;2022-07-12T15:48:57;29.70;51.30
24176;DHT22;12324;48.146;11.502;2022-07-12T15:51:23;29.90;51.20
24176;DHT22;12324;48.146;11.502;2022-07-12T15:54:09;30.20;50.70
24176;DHT22;12324;48.146;11.502;2022-07-12T15:56:36;30.70;50.30
24176;DHT22;12324;48.146;11.502;2022-07-12T15:59:02;31.20;48.70
24176;DHT22;12324;48.146;11.502;2022-07-12T16:01:29;31.10;45.30
24176;DHT22;12324;48.146;11.502;2022-07-12T16:03:56;31.20;45.20
24176;DHT22;12324;48.146;11.502;2022-07-12T16:06:30;31.20;45.40
24176;DHT22;12324;48.146;11.502;2022-07-12T16:08:57;31.00;44.70
24176;DHT22;12324;48.146;11.502;2022-07-12T16:11:24;29.90;45.10
24176;DHT22;12324;48.146;11.502;2022-07-12T16:13:50;29.30;47.20
24176;DHT22;12324;48.146;11.502;2022-07-12T16:16:17;29.30;47.80
24176;DHT22;12324;48.146;11.502;2022-07-12T16:18:44;29.40;49.70
24176;DHT22;12324;48.146;11.502;2022-07-12T16:21:11;29.90;49.10
24176;DHT22;12324;48.146;11.502;2022-07-12T16:23:38;30.20;49.80
24176;DHT22;12324;48.146;11.502;2022-07-12T16:26:04;30.60;51.50
24176;DHT22;12324;48.146;11.502;2022-07-12T16:28:31;31.00;46.90
24176;DHT22;12324;48.146;11.502;2022-07-12T16:30:58;31.10;45.40
24176;DHT22;12324;48.146;11.502;2022-07-12T16:33:25;31.40;44.40
24176;DHT22;12324;48.146;11.502;2022-07-12T16:35:52;31.00;43.20
24176;DHT22;12324;48.146;11.502;2022-07-12T16:38:19;30.50;45.00
24176;DHT22;12324;48.146;11.502;2022-07-12T16:40:46;30.50;44.30
24176;DHT22;12324;48.146;11.502;2022-07-12T16:43:13;30.50;45.40
24176;DHT22;12324;48.146;11.502;2022-07-12T16:45:39;30.80;45.10
24176;DHT22;12324;48.146;11.502;2022-07-12T16:48:06;31.00;44.00
24176;DHT22;12324;48.146;11.502;2022-07-12T16:50:33;31.00;43.80
24176;DHT22;12324;48.146;11.502;2022-07-12T16:53:01;31.00;45.00
24176;DHT22;12324;48.146;11.502;2022-07-12T16:55:29;30.60;43.40
24176;DHT22;12324;48.146;11.502;2022-07-12T16:57:56;30.20;44.50
24176;DHT22;12324;48.146;11.502;2022-07-12T17:00:23;30.50;44.30
24176;DHT22;12324;48.146;11.502;2022-07-12T17:02:50;30.50;44.60
24176;DHT22;12324;48.146;11.502;2022-07-12T17:05:17;30.90;43.70
24176;DHT22;12324;48.146;11.502;2022-07-12T17:07:44;31.30;45.40
24176;DHT22;12324;48.146;11.502;2022-07-12T17:10:10;31.50;42.90
24176;DHT22;12324;48.146;11.502;2022-07-12T17:12:37;31.60;42.30
24176;DHT22;12324;48.146;11.502;2022-07-12T17:15:05;32.10;41.70
24176;DHT22;12324;48.146;11.502;2022-07-12T17:17:32;32.00;41.60
24176;DHT22;12324;48.146;11.502;2022-07-12T17:19:59;31.70;42.30
24176;DHT22;12324;48.146;11.502;2022-07-12T17:22:25;31.70;41.90
24176;DHT22;12324;48.146;11.502;2022-07-12T17:24:52;31.50;42.60
24176;DHT22;12324;48.146;11.502;2022-07-12T17:27:27;31.60;42.30
24176;DHT22;12324;48.146;11.502;2022-07-12T17:29:54;31.70;41.10
24176;DHT22;12324;48.146;11.502;2022-07-12T17:32:21;31.50;41.30
24176;DHT22;12324;48.146;11.502;2022-07-12T17:34:47;31.50;41.00
24176;DHT22;12324;48.146;11.502;2022-07-12T17:37:14;31.50;41.50
24176;DHT22;12324;48.146;11.502;2022-07-12T17:39:41;31.40;42.10
24176;DHT22;12324;48.146;11.502;2022-07-12T17:42:08;31.60;41.20
24176;DHT22;12324;48.146;11.502;2022-07-12T17:44:34;31.80;41.10
24176;DHT22;12324;48.146;11.502;2022-07-12T17:47:03;32.00;40.40
24176;DHT22;12324;48.146;11.502;2022-07-12T17:49:30;31.90;40.70
24176;DHT22;12324;48.146;11.502;2022-07-12T17:51:57;31.30;40.60
24176;DHT22;12324;48.146;11.502;2022-07-12T17:54:24;30.70;41.10
24176;DHT22;12324;48.146;11.502;2022-07-12T17:56:51;30.40;42.20
24176;DHT22;12324;48.146;11.502;2022-07-12T17:59:21;30.40;42.50
24176;DHT22;12324;48.146;11.502;2022-07-12T18:01:48;29.80;42.50
24176;DHT22;12324;48.146;11.502;2022-07-12T18:04:15;29.00;43.50
24176;DHT22;12324;48.146;11.502;2022-07-12T18:06:42;28.40;44.10
24176;DHT22;12324;48.146;11.502;2022-07-12T18:09:11;27.90;45.60
24176;DHT22;12324;48.146;11.502;2022-07-12T18:11:39;27.50;45.90
24176;DHT22;12324;48.146;11.502;2022-07-12T18:14:24;27.10;46.20
24176;DHT22;12324;48.146;11.502;2022-07-12T18:17:11;26.40;48.30
24176;DHT22;12324;48.146;11.502;2022-07-12T18:19:57;26.10;49.20
24176;DHT22;12324;48.146;11.502;2022-07-12T18:22:25;25.80;49.80
24176;DHT22;12324;48.146;11.502;2022-07-12T18:24:54;25.60;50.00
24176;DHT22;12324;48.146;11.502;2022-07-12T18:27:27;25.30;51.10
24176;DHT22;12324;48.146;11.502;2022-07-12T18:29:53;25.00;52.10
24176;DHT22;12324;48.146;11.502;2022-07-12T18:32:20;24.90;53.10
24176;DHT22;12324;48.146;11.502;2022-07-12T18:34:47;24.70;54.00
24176;DHT22;12324;48.146;11.502;2022-07-12T18:37:14;24.50;55.00
24176;DHT22;12324;48.146;11.502;2022-07-12T18:39:41;24.20;55.80
24176;DHT22;12324;48.146;11.502;2022-07-12T18:42:08;24.00;57.30
24176;DHT22;12324;48.146;11.502;2022-07-12T18:44:36;23.80;58.40
24176;DHT22;12324;48.146;11.502;2022-07-12T18:47:03;23.70;59.80
24176;DHT22;12324;48.146;11.502;2022-07-12T18:49:30;23.50;61.10
24176;DHT22;12324;48.146;11.502;2022-07-12T18:51:58;23.40;62.40
24176;DHT22;12324;48.146;11.502;2022-07-12T18:54:24;23.30;63.10
24176;DHT22;12324;48.146;11.502;2022-07-12T18:56:51;23.20;69.00
24176;DHT22;12324;48.146;11.502;2022-07-12T18:59:21;23.10;73.20
24176;DHT22;12324;48.146;11.502;2022-07-12T19:01:48;23.00;78.50
24176;DHT22;12324;48.146;11.502;2022-07-12T19:04:16;22.90;82.60
24176;DHT22;12324;48.146;11.502;2022-07-12T19:06:43;22.70;84.90
24176;DHT22;12324;48.146;11.502;2022-07-12T19:09:10;22.60;83.20
24176;DHT22;12324;48.146;11.502;2022-07-12T19:11:37;22.50;91.20
24176;DHT22;12324;48.146;11.502;2022-07-12T19:14:05;22.30;92.50
24176;DHT22;12324;48.146;11.502;2022-07-12T19:16:32;22.10;94.60
24176;DHT22;12324;48.146;11.502;2022-07-12T19:18:59;22.00;94.30
24176;DHT22;12324;48.146;11.502;2022-07-12T19:21:30;21.80;96.90
24176;DHT22;12324;48.146;11.502;2022-07-12T19:23:57;21.70;94.50
24176;DHT22;12324;48.146;11.502;2022-07-12T19:26:23;21.60;96.40
24176;DHT22;12324;48.146;11.502;2022-07-12T19:28:50;21.40;97.30
24176;DHT22;12324;48.146;11.502;2022-07-12T19:31:17;21.30;98.50
24176;DHT22;12324;48.146;11.502;2022-07-12T19:33:44;21.20;99.90
24176;DHT22;12324;48.146;11.502;2022-07-12T19:36:11;21.10;99.90
24176;DHT22;12324;48.146;11.502;2022-07-12T19:38:37;21.00;99.90
24176;DHT22;12324;48.146;11.502;2022-07-12T19:41:04;20.90;99.90
24176;DHT22;12324;48.146;11.502;2022-07-12T19:43:31;20.70;99.90
24176;DHT22;12324;48.146;11.502;2022-07-12T19:45:59;20.70;99.90
24176;DHT22;12324;48.146;11.502;2022-07-12T19:48:26;20.60;99.90
24176;DHT22;12324;48.146;11.502;2022-07-12T19:50:53;20.40;99.90
24176;DHT22;12324;48.146;11.502;2022-07-12T19:53:20;20.30;99.90
24176;DHT22;12324;48.146;11.502;2022-07-12T19:55:46;20.20;99.90
24176;DHT22;12324;48.146;11.502;2022-07-12T19:58:19;20.20;99.90
24176;DHT22;12324;48.146;11.502;2022-07-12T20:00:46;20.10;99.90
24176;DHT22;12324;48.146;11.502;2022-07-12T20:03:12;20.00;99.90
24176;DHT22;12324;48.146;11.502;2022-07-12T20:05:39;19.90;99.90
24176;DHT22;12324;48.146;11.502;2022-07-12T20:08:06;19.90;99.90
24176;DHT22;12324;48.146;11.502;2022-07-12T20:10:40;19.80;99.90
24176;DHT22;12324;48.146;11.502;2022-07-12T20:13:08;19.80;99.90
24176;DHT22;12324;48.146;11.502;2022-07-12T20:15:35;19.70;99.90
24176;DHT22;12324;48.146;11.502;2022-07-12T20:18:02;19.70;99.90
24176;DHT22;12324;48.146;11.502;2022-07-12T20:20:32;19.60;99.90
24176;DHT22;12324;48.146;11.502;2022-07-12T20:22:59;19.60;99.90
24176;DHT22;12324;48.146;11.502;2022-07-12T20:25:26;19.50;99.90
24176;DHT22;12324;48.146;11.502;2022-07-12T20:27:53;19.50;99.90
24176;DHT22;12324;48.146;11.502;2022-07-12T20:30:20;19.40;99.90
24176;DHT22;12324;48.146;11.502;2022-07-12T20:32:47;19.40;99.90
24176;DHT22;12324;48.146;11.502;2022-07-12T20:35:32;19.40;99.90
24176;DHT22;12324;48.146;11.502;2022-07-12T20:37:59;19.30;99.90
24176;DHT22;12324;48.146;11.502;2022-07-12T20:40:26;19.30;99.90
24176;DHT22;12324;48.146;11.502;2022-07-12T20:42:53;19.30;99.90
24176;DHT22;12324;48.146;11.502;2022-07-12T20:45:20;19.20;99.90
24176;DHT22;12324;48.146;11.502;2022-07-12T20:47:47;19.20;99.90
24176;DHT22;12324;48.146;11.502;2022-07-12T20:50:14;19.20;99.90
24176;DHT22;12324;48.146;11.502;2022-07-12T20:52:40;19.10;99.90
24176;DHT22;12324;48.146;11.502;2022-07-12T20:55:08;19.10;99.90
24176;DHT22;12324;48.146;11.502;2022-07-12T20:57:34;19.10;99.90
24176;DHT22;12324;48.146;11.502;2022-07-12T21:00:03;19.10;99.90
24176;DHT22;12324;48.146;11.502;2022-07-12T21:02:30;19.00;99.90
24176;DHT22;12324;48.146;11.502;2022-07-12T21:04:56;19.00;99.90
24176;DHT22;12324;48.146;11.502;2022-07-12T21:07:23;18.90;99.90
24176;DHT22;12324;48.146;11.502;2022-07-12T21:09:50;18.90;99.90
24176;DHT22;12324;48.146;11.502;2022-07-12T21:12:16;18.90;99.90
24176;DHT22;12324;48.146;11.502;2022-07-12T21:14:43;18.90;99.90
24176;DHT22;12324;48.146;11.502;2022-07-12T21:17:13;18.90;99.90
24176;DHT22;12324;48.146;11.502;2022-07-12T21:19:40;18.80;99.90
24176;DHT22;12324;48.146;11.502;2022-07-12T21:22:06;18.70;99.90
24176;DHT22;12324;48.146;11.502;2022-07-12T21:24:33;18.70;99.90
24176;DHT22;12324;48.146;11.502;2022-07-12T21:27:01;18.60;99.90
24176;DHT22;12324;48.146;11.502;2022-07-12T21:29:28;18.50;99.90
24176;DHT22;12324;48.146;11.502;2022-07-12T21:31:55;18.50;99.90
24176;DHT22;12324;48.146;11.502;2022-07-12T21:34:22;18.40;99.90
24176;DHT22;12324;48.146;11.502;2022-07-12T21:36:48;18.40;99.90
24176;DHT22;12324;48.146;11.502;2022-07-12T21:39:15;18.20;99.90
24176;DHT22;12324;48.146;11.502;2022-07-12T21:41:42;18.20;99.90
24176;DHT22;12324;48.146;11.502;2022-07-12T21:44:09;18.10;99.90
24176;DHT22;12324;48.146;11.502;2022-07-12T21:46:35;18.10;99.90
24176;DHT22;12324;48.146;11.502;2022-07-12T21:49:02;17.90;99.90
24176;DHT22;12324;48.146;11.502;2022-07-12T21:51:29;18.00;99.90
24176;DHT22;12324;48.146;11.502;2022-07-12T21:53:56;17.90;99.90
24176;DHT22;12324;48.146;11.502;2022-07-12T21:56:22;17.80;99.90
24176;DHT22;12324;48.146;11.502;2022-07-12T21:58:49;17.80;99.90
24176;DHT22;12324;48.146;11.502;2022-07-12T22:01:16;17.80;99.90
24176;DHT22;12324;48.146;11.502;2022-07-12T22:03:42;17.70;99.90
24176;DHT22;12324;48.146;11.502;2022-07-12T22:06:09;17.60;99.90
24176;DHT22;12324;48.146;11.502;2022-07-12T22:08:36;17.60;99.90
24176;DHT22;12324;48.146;11.502;2022-07-12T22:11:02;17.50;99.90
24176;DHT22;12324;48.146;11.502;2022-07-12T22:13:30;17.50;99.90
24176;DHT22;12324;48.146;11.502;2022-07-12T22:15:57;17.40;99.90
24176;DHT22;12324;48.146;11.502;2022-07-12T22:18:23;17.40;99.90
24176;DHT22;12324;48.146;11.502;2022-07-12T22:20:50;17.30;99.90
24176;DHT22;12324;48.146;11.502;2022-07-12T22:23:17;17.30;99.90
24176;DHT22;12324;48.146;11.502;2022-07-12T22:25:44;17.30;99.90
24176;DHT22;12324;48.146;11.502;2022-07-12T22:28:12;17.20;99.90
24176;DHT22;12324;48.146;11.502;2022-07-12T22:30:38;17.10;99.90
24176;DHT22;12324;48.146;11.502;2022-07-12T22:33:05;17.10;99.90
24176;DHT22;12324;48.146;11.502;2022-07-12T22:35:32;17.10;99.90
24176;DHT22;12324;48.146;11.502;2022-07-12T22:37:58;17.00;99.90
24176;DHT22;12324;48.146;11.502;2022-07-12T22:40:25;16.90;99.90
24176;DHT22;12324;48.146;11.502;2022-07-12T22:42:52;16.90;99.90
24176;DHT22;12324;48.146;11.502;2022-07-12T22:45:19;16.80;99.90
24176;DHT22;12324;48.146;11.502;2022-07-12T22:47:46;16.80;99.90
24176;DHT22;12324;48.146;11.502;2022-07-12T22:50:12;16.80;99.90
24176;DHT22;12324;48.146;11.502;2022-07-12T22:52:39;16.80;99.90
24176;DHT22;12324;48.146;11.502;2022-07-12T22:55:06;16.90;99.90
24176;DHT22;12324;48.146;11.502;2022-07-12T22:57:33;16.80;99.90
24176;DHT22;12324;48.146;11.502;2022-07-12T23:00:02;16.80;99.90
24176;DHT22;12324;48.146;11.502;2022-07-12T23:02:29;16.70;99.90
24176;DHT22;12324;48.146;11.502;2022-07-12T23:04:56;16.80;99.90
24176;DHT22;12324;48.146;11.502;2022-07-12T23:07:23;16.80;99.90
24176;DHT22;12324;48.146;11.502;2022-07-12T23:09:50;16.80;99.90
24176;DHT22;12324;48.146;11.502;2022-07-12T23:12:16;16.70;99.90
24176;DHT22;12324;48.146;11.502;2022-07-12T23:14:44;16.70;99.90
24176;DHT22;12324;48.146;11.502;2022-07-12T23:17:10;16.60;99.90
24176;DHT22;12324;48.146;11.502;2022-07-12T23:19:37;16.60;99.90
24176;DHT22;12324;48.146;11.502;2022-07-12T23:22:04;16.60;99.90